createdAt,value
2019-03-16T00:02:11.857Z,94976.36
2019-03-16T00:04:38.092Z,94977.49
2019-03-16T00:07:04.183Z,94975.51
2019-03-16T00:09:30.414Z,94975.48
2019-03-16T00:11:56.686Z,94989.23
2019-03-16T00:14:22.940Z,94986.27
2019-03-16T00:16:49.118Z,94985.73
2019-03-16T00:19:15.285Z,95006.31
2019-03-16T00:21:41.452Z,95005.66
2019-03-16T00:24:07.845Z,95011.52
2019-03-16T00:26:34.118Z,95014.77
2019-03-16T00:29:00.410Z,95030.48
2019-03-16T00:31:26.647Z,95042.27
2019-03-16T00:33:52.872Z,95033.93
2019-03-16T00:36:20.129Z,95044.41
2019-03-16T00:38:46.370Z,95054.55
2019-03-16T00:41:13.741Z,95072.58
2019-03-16T00:43:39.951Z,95059.28
2019-03-16T00:46:06.072Z,95052.73
2019-03-16T00:48:32.283Z,95061.89
2019-03-16T00:50:58.461Z,95060.41
2019-03-16T00:53:24.812Z,95054.02
2019-03-16T00:55:51.101Z,95054.31
2019-03-16T00:58:17.393Z,95060.71
2019-03-16T01:00:43.946Z,95058.72
2019-03-16T01:03:10.184Z,95056.75
2019-03-16T01:05:36.292Z,95050.53
2019-03-16T01:08:02.526Z,95055.74
2019-03-16T01:10:28.855Z,95068.00
2019-03-16T01:12:55.220Z,95066.84
2019-03-16T01:15:22.505Z,95075.52
2019-03-16T01:17:48.832Z,95073.23
2019-03-16T01:20:15.080Z,95078.61
2019-03-16T01:22:41.504Z,95075.67
2019-03-16T01:25:09.002Z,95074.52
2019-03-16T01:27:35.220Z,95076.92
2019-03-16T01:30:01.688Z,95073.50
2019-03-16T01:32:40.120Z,95076.41
2019-03-16T01:34:56.245Z,95075.43
2019-03-16T01:37:22.560Z,95073.14
2019-03-16T01:39:48.680Z,95072.66
2019-03-16T01:42:15.823Z,95060.73
2019-03-16T01:44:41.988Z,95060.59
2019-03-16T01:47:08.322Z,95064.52
2019-03-16T01:49:34.536Z,95063.98
2019-03-16T01:52:00.660Z,95068.05
2019-03-16T01:54:26.881Z,95064.48
2019-03-16T01:56:53.269Z,95072.99
2019-03-16T01:59:19.584Z,95071.39
2019-03-16T02:01:49.096Z,95075.16
2019-03-16T02:04:14.146Z,95067.46
2019-03-16T02:06:40.366Z,95084.03
2019-03-16T02:09:06.674Z,95081.47
2019-03-16T02:11:32.892Z,95093.91
2019-03-16T02:13:59.144Z,95090.97
2019-03-16T02:16:25.332Z,95100.45
2019-03-16T02:18:51.497Z,95104.20
2019-03-16T02:21:17.723Z,95110.27
2019-03-16T02:23:43.960Z,95106.20
2019-03-16T02:26:10.135Z,95106.85
2019-03-16T02:28:36.330Z,95117.83
2019-03-16T02:31:02.725Z,95120.16
2019-03-16T02:33:29.057Z,95124.70
2019-03-16T02:35:55.226Z,95128.78
2019-03-16T02:38:21.467Z,95122.77
2019-03-16T02:40:47.732Z,95122.92
2019-03-16T02:43:13.942Z,95125.03
2019-03-16T02:45:40.129Z,95132.08
2019-03-16T02:48:06.842Z,95132.70
2019-03-16T02:50:33.064Z,95139.10
2019-03-16T02:52:59.306Z,95134.84
2019-03-16T02:55:25.607Z,95138.63
2019-03-16T02:57:55.975Z,95139.44
2019-03-16T03:00:22.208Z,95140.59
2019-03-16T03:02:48.399Z,95143.90
2019-03-16T03:05:14.651Z,95148.59
2019-03-16T03:07:41.004Z,95135.03
2019-03-16T03:10:13.302Z,95129.80
2019-03-16T03:12:39.635Z,95144.52
2019-03-16T03:15:07.461Z,95150.62
2019-03-16T03:17:34.620Z,95157.31
2019-03-16T03:20:01.025Z,95158.01
2019-03-16T03:22:27.369Z,95157.02
2019-03-16T03:24:53.629Z,95167.56
2019-03-16T03:27:19.824Z,95174.25
2019-03-16T03:29:46.569Z,95178.48
2019-03-16T03:32:12.733Z,95172.66
2019-03-16T03:34:38.989Z,95173.84
2019-03-16T03:37:06.393Z,95140.17
2019-03-16T03:39:32.539Z,95174.02
2019-03-16T03:41:58.719Z,95173.36
2019-03-16T03:44:24.906Z,95171.50
2019-03-16T03:46:51.101Z,95171.98
2019-03-16T03:49:17.270Z,95178.19
2019-03-16T03:51:43.436Z,95173.79
2019-03-16T03:54:09.605Z,95174.73
2019-03-16T03:56:35.824Z,95175.10
2019-03-16T03:59:02.378Z,95181.14
2019-03-16T04:01:28.632Z,95184.44
2019-03-16T04:03:54.825Z,95184.77
2019-03-16T04:06:21.151Z,95185.14
2019-03-16T04:08:47.392Z,95191.67
2019-03-16T04:11:13.904Z,95192.48
2019-03-16T04:13:40.111Z,95196.59
2019-03-16T04:16:06.257Z,95199.56
2019-03-16T04:18:32.447Z,95218.70
2019-03-16T04:21:01.331Z,95220.70
2019-03-16T04:23:27.500Z,95218.08
2019-03-16T04:25:53.681Z,95221.67
2019-03-16T04:28:19.900Z,95224.29
2019-03-16T04:30:46.052Z,95227.56
2019-03-16T04:33:12.178Z,95219.72
2019-03-16T04:35:38.394Z,95227.64
2019-03-16T04:38:04.511Z,95231.56
2019-03-16T04:40:30.731Z,95249.24
2019-03-16T04:42:56.898Z,95238.44
2019-03-16T04:45:23.303Z,95242.84
2019-03-16T04:47:49.413Z,95256.62
2019-03-16T04:50:15.610Z,95255.31
2019-03-16T04:52:41.718Z,95258.41
2019-03-16T04:55:08.226Z,95258.91
2019-03-16T04:57:34.448Z,95254.33
2019-03-16T05:00:00.719Z,95258.12
2019-03-16T05:02:26.975Z,95257.31
2019-03-16T05:04:53.454Z,95259.28
2019-03-16T05:07:19.699Z,95265.35
2019-03-16T05:09:45.840Z,95258.81
2019-03-16T05:12:12.089Z,95262.92
2019-03-16T05:14:38.292Z,95261.14
2019-03-16T05:17:04.496Z,95268.02
2019-03-16T05:19:30.661Z,95263.33
2019-03-16T05:21:56.879Z,95274.13
2019-03-16T05:24:23.055Z,95276.75
2019-03-16T05:26:49.339Z,95279.87
2019-03-16T05:29:15.593Z,95284.59
2019-03-16T05:31:41.766Z,95287.58
2019-03-16T05:34:08.024Z,95293.14
2019-03-16T05:36:34.270Z,95296.23
2019-03-16T05:39:01.372Z,95297.55
2019-03-16T05:41:27.683Z,95311.52
2019-03-16T05:43:53.863Z,95315.59
2019-03-16T05:46:23.543Z,95319.73
2019-03-16T05:48:49.666Z,95317.59
2019-03-16T05:51:15.894Z,95321.99
2019-03-16T05:53:42.283Z,95316.75
2019-03-16T05:56:08.765Z,95324.28
2019-03-16T05:58:35.079Z,95347.99
2019-03-16T06:01:01.383Z,95340.97
2019-03-16T06:03:27.530Z,95337.05
2019-03-16T06:05:53.955Z,95342.14
2019-03-16T06:08:21.264Z,95343.37
2019-03-16T06:10:47.415Z,95352.67
2019-03-16T06:13:13.833Z,95342.02
2019-03-16T06:15:39.957Z,95352.02
2019-03-16T06:18:06.213Z,95364.55
2019-03-16T06:20:32.396Z,95359.93
2019-03-16T06:22:58.636Z,95365.81
2019-03-16T06:25:24.736Z,95372.97
2019-03-16T06:27:50.964Z,95373.39
2019-03-16T06:30:20.553Z,95371.62
2019-03-16T06:32:45.312Z,95381.84
2019-03-16T06:35:24.538Z,95383.56
2019-03-16T06:37:43.144Z,95395.89
2019-03-16T06:40:10.040Z,95395.47
2019-03-16T06:42:36.479Z,95392.39
2019-03-16T06:45:04.788Z,95400.70
2019-03-16T06:47:31.055Z,95402.35
2019-03-16T06:49:57.213Z,95395.47
2019-03-16T06:52:23.563Z,95404.91
2019-03-16T06:54:49.703Z,95403.60
2019-03-16T06:57:17.568Z,95411.12
2019-03-16T06:59:43.781Z,95394.38
2019-03-16T07:02:09.944Z,95413.58
2019-03-16T07:04:36.229Z,95407.17
2019-03-16T07:07:02.605Z,95415.49
2019-03-16T07:09:29.724Z,95416.47
2019-03-16T07:12:07.231Z,95421.09
2019-03-16T07:14:33.461Z,95428.58
2019-03-16T07:17:02.260Z,95428.94
2019-03-16T07:19:28.900Z,95432.03
2019-03-16T07:21:55.060Z,95431.05
2019-03-16T07:24:21.355Z,95429.98
2019-03-16T07:26:47.764Z,95430.72
2019-03-16T07:29:14.213Z,95431.59
2019-03-16T07:31:40.316Z,95437.80
2019-03-16T07:34:06.673Z,95442.83
2019-03-16T07:36:35.911Z,95447.93
2019-03-16T07:39:02.603Z,95441.86
2019-03-16T07:41:28.874Z,95441.16
2019-03-16T07:43:55.161Z,95444.75
2019-03-16T07:46:21.588Z,95438.55
2019-03-16T07:48:47.974Z,95437.09
2019-03-16T07:51:14.243Z,95434.98
2019-03-16T07:53:40.353Z,95434.63
2019-03-16T07:56:07.021Z,95427.61
2019-03-16T07:58:33.137Z,95443.78
2019-03-16T08:00:59.390Z,95444.75
2019-03-16T08:03:25.546Z,95448.06
2019-03-16T08:05:51.857Z,95440.83
2019-03-16T08:08:18.044Z,95438.95
2019-03-16T08:10:44.319Z,95435.09
2019-03-16T08:13:10.414Z,95441.70
2019-03-16T08:15:36.711Z,95436.61
2019-03-16T08:18:03.686Z,95439.59
2019-03-16T08:20:31.496Z,95436.70
2019-03-16T08:22:58.118Z,95438.41
2019-03-16T08:25:24.300Z,95436.22
2019-03-16T08:27:54.532Z,95430.45
2019-03-16T08:30:18.738Z,95431.41
2019-03-16T08:32:44.956Z,95428.74
2019-03-16T08:35:11.272Z,95421.52
2019-03-16T08:37:37.385Z,95428.87
2019-03-16T08:40:06.197Z,95428.09
2019-03-16T08:42:32.299Z,95424.39
2019-03-16T08:44:58.597Z,95424.02
2019-03-16T08:47:24.764Z,95421.35
2019-03-16T08:49:50.988Z,95432.85
2019-03-16T08:52:17.178Z,95423.05
2019-03-16T08:54:43.339Z,95429.39
2019-03-16T08:57:09.525Z,95425.72
2019-03-16T08:59:35.782Z,95424.55
2019-03-16T09:02:02.255Z,95427.86
2019-03-16T09:04:29.469Z,95425.86
2019-03-16T09:06:55.598Z,95425.86
2019-03-16T09:09:21.796Z,95426.97
2019-03-16T09:11:48.013Z,95428.89
2019-03-16T09:14:14.255Z,95423.23
2019-03-16T09:16:40.480Z,95418.64
2019-03-16T09:19:06.627Z,95422.63
2019-03-16T09:21:32.791Z,95425.29
2019-03-16T09:23:59.096Z,95428.52
2019-03-16T09:26:25.296Z,95427.71
2019-03-16T09:28:59.955Z,95430.47
2019-03-16T09:31:19.673Z,95439.21
2019-03-16T09:33:45.778Z,95440.86
2019-03-16T09:36:12.092Z,95447.67
2019-03-16T09:38:38.257Z,95445.39
2019-03-16T09:41:04.523Z,95443.61
2019-03-16T09:43:30.674Z,95445.67
2019-03-16T09:45:56.911Z,95454.00
2019-03-16T09:48:23.011Z,95447.31
2019-03-16T09:50:49.319Z,95458.90
2019-03-16T09:53:15.581Z,95465.16
2019-03-16T09:55:41.805Z,95451.23
2019-03-16T09:58:07.964Z,95446.47
2019-03-16T10:00:34.193Z,95434.75
2019-03-16T10:03:00.312Z,95428.11
2019-03-16T10:05:26.534Z,95426.58
2019-03-16T10:07:52.711Z,95421.14
2019-03-16T10:10:18.869Z,95424.70
2019-03-16T10:12:45.084Z,95419.81
2019-03-16T10:15:12.235Z,95410.83
2019-03-16T10:17:38.566Z,95402.20
2019-03-16T10:20:07.635Z,95397.14
2019-03-16T10:22:33.861Z,95405.02
2019-03-16T10:24:59.964Z,95404.32
2019-03-16T10:27:26.176Z,95403.08
2019-03-16T10:29:52.354Z,95399.81
2019-03-16T10:32:18.995Z,95402.10
2019-03-16T10:34:45.216Z,95387.97
2019-03-16T10:37:11.401Z,95399.34
2019-03-16T10:39:37.558Z,95388.59
2019-03-16T10:42:03.740Z,95387.29
2019-03-16T10:44:29.881Z,95389.11
2019-03-16T10:46:56.026Z,95392.34
2019-03-16T10:49:22.311Z,95386.05
2019-03-16T10:51:48.658Z,95383.06
2019-03-16T10:54:14.881Z,95381.09
2019-03-16T10:56:41.066Z,95374.33
2019-03-16T10:59:07.247Z,95370.94
2019-03-16T11:01:33.511Z,95374.87
2019-03-16T11:03:59.642Z,95365.55
2019-03-16T11:06:25.940Z,95364.28
2019-03-16T11:08:53.179Z,95355.10
2019-03-16T11:11:20.428Z,95357.58
2019-03-16T11:13:46.612Z,95346.14
2019-03-16T11:16:12.874Z,95348.31
2019-03-16T11:18:38.979Z,95334.70
2019-03-16T11:21:05.180Z,95344.23
2019-03-16T11:23:31.332Z,95336.41
2019-03-16T11:25:57.605Z,95331.25
2019-03-16T11:28:23.811Z,95329.97
2019-03-16T11:30:51.511Z,95314.34
2019-03-16T11:33:17.743Z,95324.41
2019-03-16T11:35:43.968Z,95329.34
2019-03-16T11:38:10.386Z,95312.87
2019-03-16T11:40:36.800Z,95315.77
2019-03-16T11:43:03.175Z,95298.96
2019-03-16T11:45:29.999Z,95296.88
2019-03-16T11:47:56.355Z,95301.38
2019-03-16T11:50:23.450Z,95296.69
2019-03-16T11:52:49.655Z,95294.08
2019-03-16T11:55:15.765Z,95291.17
2019-03-16T11:57:43.078Z,95286.92
2019-03-16T12:00:11.332Z,95288.59
2019-03-16T12:02:37.678Z,95288.95
2019-03-16T12:05:07.059Z,95289.94
2019-03-16T12:07:33.276Z,95285.19
2019-03-16T12:09:59.473Z,95284.84
2019-03-16T12:12:25.722Z,95282.05
2019-03-16T12:14:51.904Z,95285.86
2019-03-16T12:17:18.205Z,95282.08
2019-03-16T12:19:44.412Z,95281.59
2019-03-16T12:22:10.759Z,95292.47
2019-03-16T12:24:36.870Z,95281.11
2019-03-16T12:27:03.238Z,95283.59
2019-03-16T12:29:34.027Z,95277.50
2019-03-16T12:31:57.670Z,95278.34
2019-03-16T12:34:23.846Z,95274.22
2019-03-16T12:36:50.023Z,95266.50
2019-03-16T12:39:16.172Z,95256.47
2019-03-16T12:41:42.313Z,95253.31
2019-03-16T12:44:08.527Z,95250.36
2019-03-16T12:46:34.634Z,95240.31
2019-03-16T12:49:00.860Z,95245.57
2019-03-16T12:51:27.028Z,95237.67
2019-03-16T12:53:53.261Z,95228.11
2019-03-16T12:56:19.421Z,95227.79
2019-03-16T12:58:45.587Z,95229.75
2019-03-16T13:01:12.746Z,95216.58
2019-03-16T13:03:41.193Z,95213.11
2019-03-16T13:06:07.702Z,95220.17
2019-03-16T13:08:34.275Z,95211.77
2019-03-16T13:11:02.010Z,95211.92
2019-03-16T13:13:29.397Z,95205.63
2019-03-16T13:15:55.706Z,95202.02
2019-03-16T13:18:21.923Z,95194.09
2019-03-16T13:20:48.429Z,95203.62
2019-03-16T13:23:14.594Z,95209.51
2019-03-16T13:25:41.284Z,95199.63
2019-03-16T13:28:07.404Z,95192.75
2019-03-16T13:30:33.799Z,95193.38
2019-03-16T13:32:59.982Z,95189.54
2019-03-16T13:35:28.335Z,95181.59
2019-03-16T13:37:54.785Z,95184.86
2019-03-16T13:40:21.194Z,95190.96
2019-03-16T13:42:47.424Z,95198.73
2019-03-16T13:45:13.785Z,95198.11
2019-03-16T13:47:40.011Z,95197.24
2019-03-16T13:50:25.410Z,95183.40
2019-03-16T13:52:51.804Z,95193.73
2019-03-16T13:55:18.195Z,95180.55
2019-03-16T13:57:44.330Z,95174.63
2019-03-16T14:00:18.165Z,95187.84
2019-03-16T14:02:44.363Z,95182.73
2019-03-16T14:05:10.826Z,95179.97
2019-03-16T14:07:38.610Z,95187.53
2019-03-16T14:10:13.925Z,95180.31
2019-03-16T14:12:40.396Z,95185.23
2019-03-16T14:15:06.907Z,95176.05
2019-03-16T14:17:35.098Z,95190.23
2019-03-16T14:20:01.542Z,95183.16
2019-03-16T14:22:27.868Z,95181.86
2019-03-16T14:24:54.549Z,95177.28
2019-03-16T14:27:20.769Z,95180.26
2019-03-16T14:29:47.151Z,95188.45
2019-03-16T14:32:13.463Z,95192.23
2019-03-16T14:34:40.005Z,95190.08
2019-03-16T14:37:06.185Z,95192.55
2019-03-16T14:39:32.419Z,95193.55
2019-03-16T14:41:58.603Z,95201.00
2019-03-16T14:44:24.923Z,95195.72
2019-03-16T14:46:51.221Z,95188.81
2019-03-16T14:49:17.611Z,95191.45
2019-03-16T14:51:43.922Z,95187.98
2019-03-16T14:54:10.216Z,95187.36
2019-03-16T14:56:36.491Z,95192.77
2019-03-16T14:59:03.053Z,95194.91
2019-03-16T15:01:29.441Z,95186.19
2019-03-16T15:03:55.625Z,95181.89
2019-03-16T15:06:21.894Z,95183.20
2019-03-16T15:08:48.145Z,95193.38
2019-03-16T15:11:14.387Z,95187.25
2019-03-16T15:13:40.601Z,95177.67
2019-03-16T15:16:06.790Z,95175.35
2019-03-16T15:18:33.114Z,95176.11
2019-03-16T15:21:00.330Z,95177.70
2019-03-16T15:23:26.767Z,95176.91
2019-03-16T15:25:52.871Z,95174.17
2019-03-16T15:28:20.134Z,95174.69
2019-03-16T15:30:50.983Z,95169.59
2019-03-16T15:33:14.613Z,95171.53
2019-03-16T15:35:41.209Z,95177.47
2019-03-16T15:38:07.395Z,95168.10
2019-03-16T15:40:38.212Z,95167.30
2019-03-16T15:43:03.419Z,95168.94
2019-03-16T15:45:30.658Z,95165.16
2019-03-16T15:47:57.005Z,95158.25
2019-03-16T15:50:24.230Z,95154.81
2019-03-16T15:52:50.341Z,95154.02
2019-03-16T15:55:16.820Z,95152.05
2019-03-16T15:57:43.143Z,95153.39
2019-03-16T16:00:12.055Z,95155.70
2019-03-16T16:02:38.470Z,95158.52
2019-03-16T16:05:06.970Z,95138.44
2019-03-16T16:07:35.378Z,95145.83
2019-03-16T16:10:02.423Z,95148.32
2019-03-16T16:12:28.624Z,95135.63
2019-03-16T16:14:54.857Z,95139.75
2019-03-16T16:17:21.145Z,95150.16
2019-03-16T16:19:47.502Z,95134.34
2019-03-16T16:22:13.758Z,95127.79
2019-03-16T16:24:39.916Z,95155.10
2019-03-16T16:27:06.284Z,95141.78
2019-03-16T16:29:32.605Z,95144.28
2019-03-16T16:31:59.056Z,95144.91
2019-03-16T16:34:25.244Z,95140.84
2019-03-16T16:36:51.867Z,95138.20
2019-03-16T16:39:17.990Z,95135.23
2019-03-16T16:41:44.243Z,95133.73
2019-03-16T16:44:10.524Z,95127.84
2019-03-16T16:46:36.915Z,95133.73
2019-03-16T16:49:03.218Z,95125.86
2019-03-16T16:51:29.523Z,95133.59
2019-03-16T16:53:55.819Z,95128.47
2019-03-16T16:56:21.924Z,95130.30
2019-03-16T16:58:48.203Z,95137.86
2019-03-16T17:01:14.797Z,95134.42
2019-03-16T17:03:42.019Z,95131.30
2019-03-16T17:06:08.196Z,95124.09
2019-03-16T17:08:35.369Z,95130.96
2019-03-16T17:11:01.717Z,95136.08
2019-03-16T17:13:28.082Z,95130.64
2019-03-16T17:15:54.243Z,95125.55
2019-03-16T17:18:20.815Z,95125.06
2019-03-16T17:20:46.974Z,95126.55
2019-03-16T17:23:13.227Z,95128.67
2019-03-16T17:25:39.414Z,95128.50
2019-03-16T17:28:05.714Z,95134.11
2019-03-16T17:30:32.861Z,95129.35
2019-03-16T17:32:59.069Z,95138.74
2019-03-16T17:35:25.267Z,95137.42
2019-03-16T17:37:51.365Z,95145.50
2019-03-16T17:40:17.593Z,95133.96
2019-03-16T17:42:44.048Z,95132.33
2019-03-16T17:45:11.450Z,95135.11
2019-03-16T17:47:37.660Z,95137.59
2019-03-16T17:50:06.265Z,95140.86
2019-03-16T17:52:32.532Z,95136.42
2019-03-16T17:54:58.711Z,95134.11
2019-03-16T17:57:24.867Z,95131.81
2019-03-16T17:59:51.291Z,95134.80
2019-03-16T18:02:17.540Z,95132.64
2019-03-16T18:04:43.725Z,95130.67
2019-03-16T18:07:09.991Z,95141.52
2019-03-16T18:09:36.264Z,95145.81
2019-03-16T18:12:02.745Z,95139.89
2019-03-16T18:14:28.989Z,95139.23
2019-03-16T18:16:55.151Z,95132.50
2019-03-16T18:19:21.368Z,95128.03
2019-03-16T18:21:47.632Z,95134.47
2019-03-16T18:24:13.900Z,95137.25
2019-03-16T18:26:40.164Z,95141.54
2019-03-16T18:29:06.478Z,95141.38
2019-03-16T18:31:32.740Z,95141.39
2019-03-16T18:33:58.856Z,95139.23
2019-03-16T18:36:25.194Z,95153.73
2019-03-16T18:38:51.381Z,95136.27
2019-03-16T18:41:17.802Z,95123.28
2019-03-16T18:43:44.273Z,95124.59
2019-03-16T18:46:10.529Z,95121.48
2019-03-16T18:48:36.642Z,95123.63
2019-03-16T18:51:03.239Z,95124.77
2019-03-16T18:53:29.565Z,95116.35
2019-03-16T18:55:55.851Z,95113.41
2019-03-16T18:58:22.131Z,95105.84
2019-03-16T19:00:48.752Z,95109.80
2019-03-16T19:03:14.969Z,95107.81
2019-03-16T19:05:41.443Z,95095.00
2019-03-16T19:08:07.819Z,95099.44
2019-03-16T19:10:33.991Z,95099.29
2019-03-16T19:13:00.134Z,95097.63
2019-03-16T19:15:26.444Z,95109.98
2019-03-16T19:17:58.824Z,95109.98
2019-03-16T19:20:21.206Z,95111.81
2019-03-16T19:22:47.567Z,95113.28
2019-03-16T19:25:22.513Z,95109.50
2019-03-16T19:27:49.768Z,95114.27
2019-03-16T19:30:16.842Z,95115.11
2019-03-16T19:32:43.319Z,95110.67
2019-03-16T19:35:11.418Z,95113.95
2019-03-16T19:37:37.848Z,95115.78
2019-03-16T19:40:08.963Z,95116.27
2019-03-16T19:42:35.220Z,95108.70
2019-03-16T19:45:02.230Z,95114.48
2019-03-16T19:47:28.662Z,95118.61
2019-03-16T19:49:54.950Z,95108.54
2019-03-16T19:52:21.373Z,95110.70
2019-03-16T19:54:47.739Z,95099.67
2019-03-16T19:57:16.319Z,95100.50
2019-03-16T19:59:42.194Z,95100.35
2019-03-16T20:02:09.551Z,95088.16
2019-03-16T20:04:36.502Z,95088.67
2019-03-16T20:07:02.756Z,95090.33
2019-03-16T20:09:29.001Z,95088.34
2019-03-16T20:11:55.343Z,95089.18
2019-03-16T20:14:21.733Z,95092.30
2019-03-16T20:16:47.993Z,95088.69
2019-03-16T20:19:14.375Z,95080.47
2019-03-16T20:21:40.725Z,95076.02
2019-03-16T20:24:06.980Z,95071.58
2019-03-16T20:26:33.314Z,95069.61
2019-03-16T20:28:59.655Z,95075.67
2019-03-16T20:31:26.077Z,95077.67
2019-03-16T20:33:52.280Z,95076.34
2019-03-16T20:36:18.612Z,95080.47
2019-03-16T20:38:44.804Z,95083.45
2019-03-16T20:41:11.058Z,95082.61
2019-03-16T20:43:37.474Z,95082.45
2019-03-16T20:46:03.739Z,95076.87
2019-03-16T20:48:29.946Z,95068.31
2019-03-16T20:50:56.046Z,95075.20
2019-03-16T20:53:22.277Z,95071.45
2019-03-16T20:55:48.495Z,95069.47
2019-03-16T20:58:14.861Z,95072.27
2019-03-16T21:00:41.049Z,95069.00
2019-03-16T21:03:16.052Z,95075.58
2019-03-16T21:05:36.300Z,95068.67
2019-03-16T21:08:02.557Z,95071.48
2019-03-16T21:10:29.011Z,95066.23
2019-03-16T21:12:55.233Z,95069.03
2019-03-16T21:15:21.348Z,95071.34
2019-03-16T21:17:47.572Z,95066.91
2019-03-16T21:20:17.533Z,95064.44
2019-03-16T21:22:43.886Z,95074.14
2019-03-16T21:25:11.738Z,95074.64
2019-03-16T21:27:38.203Z,95074.01
2019-03-16T21:30:13.472Z,95070.55
2019-03-16T21:32:39.844Z,95073.17
2019-03-16T21:35:06.559Z,95066.94
2019-03-16T21:37:32.774Z,95062.52
2019-03-16T21:39:58.925Z,95063.81
2019-03-16T21:42:25.137Z,95054.45
2019-03-16T21:44:51.333Z,95066.94
2019-03-16T21:47:17.599Z,95057.27
2019-03-16T21:49:43.910Z,95059.08
2019-03-16T21:52:10.136Z,95052.67
2019-03-16T21:54:36.353Z,95052.64
2019-03-16T21:57:02.575Z,95051.02
2019-03-16T21:59:28.879Z,95051.34
2019-03-16T22:01:55.164Z,95048.87
2019-03-16T22:04:21.301Z,95047.55
2019-03-16T22:06:47.594Z,95057.73
2019-03-16T22:09:13.739Z,95055.94
2019-03-16T22:11:40.020Z,95061.86
2019-03-16T22:14:06.347Z,95067.59
2019-03-16T22:16:32.462Z,95059.89
2019-03-16T22:18:58.967Z,95053.33
2019-03-16T22:21:25.231Z,95051.34
2019-03-16T22:23:51.581Z,95057.91
2019-03-16T22:26:17.807Z,95056.59
2019-03-16T22:28:43.907Z,95051.18
2019-03-16T22:31:10.134Z,95049.54
2019-03-16T22:33:36.241Z,95054.30
2019-03-16T22:36:02.581Z,95051.34
2019-03-16T22:38:28.824Z,95059.88
2019-03-16T22:40:55.083Z,95044.41
2019-03-16T22:43:21.310Z,95042.45
2019-03-16T22:45:47.465Z,95035.53
2019-03-16T22:48:13.692Z,95036.53
2019-03-16T22:50:39.846Z,95039.64
2019-03-16T22:53:06.053Z,95035.86
2019-03-16T22:55:32.267Z,95032.25
2019-03-16T22:57:58.523Z,95016.46
2019-03-16T23:00:43.195Z,94990.50
2019-03-16T23:03:09.613Z,95017.96
2019-03-16T23:05:35.838Z,95014.50
2019-03-16T23:08:02.160Z,95008.44
2019-03-16T23:10:28.256Z,95007.45
2019-03-16T23:12:54.522Z,95010.09
2019-03-16T23:15:20.697Z,95007.94
2019-03-16T23:17:47.001Z,95013.86
2019-03-16T23:20:13.555Z,95020.61
2019-03-16T23:22:39.855Z,95012.84
2019-03-16T23:25:07.274Z,95004.33
2019-03-16T23:27:33.445Z,95005.96
2019-03-16T23:29:59.854Z,94989.53
2019-03-16T23:32:26.086Z,94998.41
2019-03-16T23:34:52.282Z,94984.77
2019-03-16T23:37:18.504Z,94974.08
2019-03-16T23:39:44.713Z,94985.61
2019-03-16T23:42:10.974Z,94977.55
2019-03-16T23:44:37.081Z,94959.33
2019-03-16T23:47:03.302Z,94961.48
2019-03-16T23:49:29.409Z,94959.02
2019-03-16T23:51:55.623Z,94961.83
2019-03-16T23:54:21.734Z,94961.16
2019-03-16T23:56:47.950Z,94964.95
2019-03-16T23:59:14.579Z,94964.97
